sensor_id;sensor_type;location;lat;lon;timestamp;pressure;altitude;pressure_sealevel;temperature;humidity
61710;BME280;47633;51.494;5.386;2023-05-07T00:00:58;101538.44;;;20.17;53.83
61710;BME280;47633;51.494;5.386;2023-05-07T00:03:24;101539.25;;;20.18;53.69
61710;BME280;47633;51.494;5.386;2023-05-07T00:05:50;101544.44;;;20.19;53.64
61710;BME280;47633;51.494;5.386;2023-05-07T00:08:15;101540.97;;;20.19;53.71
61710;BME280;47633;51.494;5.386;2023-05-07T00:10:40;101539.16;;;20.19;53.65
61710;BME280;47633;51.494;5.386;2023-05-07T00:13:06;101534.91;;;20.17;53.66
61710;BME280;47633;51.494;5.386;2023-05-07T00:15:31;101529.63;;;20.17;53.64
61710;BME280;47633;51.494;5.386;2023-05-07T00:17:56;101532.28;;;20.17;53.59
61710;BME280;47633;51.494;5.386;2023-05-07T00:20:23;101521.94;;;20.14;53.47
61710;BME280;47633;51.494;5.386;2023-05-07T00:22:48;101521.09;;;20.13;53.77
61710;BME280;47633;51.494;5.386;2023-05-07T00:25:14;101522.78;;;20.14;53.58
61710;BME280;47633;51.494;5.386;2023-05-07T00:27:39;101521.81;;;20.15;53.58
61710;BME280;47633;51.494;5.386;2023-05-07T00:30:05;101519.41;;;20.12;53.75
61710;BME280;47633;51.494;5.386;2023-05-07T00:32:31;101524.56;;;20.14;53.53
61710;BME280;47633;51.494;5.386;2023-05-07T00:34:56;101518.56;;;20.11;53.56
61710;BME280;47633;51.494;5.386;2023-05-07T00:37:21;101522.78;;;20.14;53.37
61710;BME280;47633;51.494;5.386;2023-05-07T00:39:47;101521.09;;;20.13;53.53
61710;BME280;47633;51.494;5.386;2023-05-07T00:42:12;101519.41;;;20.12;53.64
61710;BME280;47633;51.494;5.386;2023-05-07T00:44:37;101515.09;;;20.11;53.72
61710;BME280;47633;51.494;5.386;2023-05-07T00:47:04;101517.75;;;20.11;53.50
61710;BME280;47633;51.494;5.386;2023-05-07T00:49:38;101512.44;;;20.11;53.23
61710;BME280;47633;51.494;5.386;2023-05-07T00:52:04;101501.00;;;20.10;53.39
61710;BME280;47633;51.494;5.386;2023-05-07T00:54:30;101502.94;;;20.08;53.67
61710;BME280;47633;51.494;5.386;2023-05-07T00:56:56;101509.81;;;20.11;53.52
61710;BME280;47633;51.494;5.386;2023-05-07T00:59:21;101510.88;;;20.08;53.57
61710;BME280;47633;51.494;5.386;2023-05-07T01:01:46;101510.75;;;20.10;53.63
61710;BME280;47633;51.494;5.386;2023-05-07T01:04:12;101512.44;;;20.11;53.50
61710;BME280;47633;51.494;5.386;2023-05-07T01:06:37;101510.03;;;20.08;53.43
61710;BME280;47633;51.494;5.386;2023-05-07T01:09:03;101508.94;;;20.10;53.50
61710;BME280;47633;51.494;5.386;2023-05-07T01:11:29;101513.53;;;20.08;53.46
61710;BME280;47633;51.494;5.386;2023-05-07T01:13:55;101508.34;;;20.07;53.55
61710;BME280;47633;51.494;5.386;2023-05-07T01:16:21;101504.75;;;20.08;53.71
61710;BME280;47633;51.494;5.386;2023-05-07T01:18:47;101500.41;;;20.07;53.32
61710;BME280;47633;51.494;5.386;2023-05-07T01:21:15;101506.53;;;20.07;53.47
61710;BME280;47633;51.494;5.386;2023-05-07T01:23:42;101497.78;;;20.07;53.45
61710;BME280;47633;51.494;5.386;2023-05-07T01:26:07;101494.16;;;20.08;53.57
61710;BME280;47633;51.494;5.386;2023-05-07T01:28:32;101491.66;;;20.06;53.26
61710;BME280;47633;51.494;5.386;2023-05-07T01:31:03;101475.78;;;20.06;53.43
61710;BME280;47633;51.494;5.386;2023-05-07T01:33:32;101478.41;;;20.06;53.40
61710;BME280;47633;51.494;5.386;2023-05-07T01:35:58;101475.66;;;20.08;53.49
61710;BME280;47633;51.494;5.386;2023-05-07T01:38:27;101474.91;;;20.06;53.38
61710;BME280;47633;51.494;5.386;2023-05-07T01:40:53;101479.25;;;20.07;53.50
61710;BME280;47633;51.494;5.386;2023-05-07T01:43:19;101480.19;;;20.06;53.78
61710;BME280;47633;51.494;5.386;2023-05-07T01:45:44;101478.66;;;20.03;53.41
61710;BME280;47633;51.494;5.386;2023-05-07T01:48:11;101471.66;;;20.02;53.55
61710;BME280;47633;51.494;5.386;2023-05-07T01:50:38;101469.75;;;20.04;53.31
61710;BME280;47633;51.494;5.386;2023-05-07T01:53:03;101476.72;;;20.05;53.47
61710;BME280;47633;51.494;5.386;2023-05-07T01:55:29;101473.25;;;20.05;53.27
61710;BME280;47633;51.494;5.386;2023-05-07T01:57:54;101461.94;;;20.03;53.38
61710;BME280;47633;51.494;5.386;2023-05-07T02:00:20;101462.06;;;20.01;53.42
61710;BME280;47633;51.494;5.386;2023-05-07T02:02:45;101467.25;;;20.03;53.43
61710;BME280;47633;51.494;5.386;2023-05-07T02:05:11;101463.63;;;20.04;53.18
61710;BME280;47633;51.494;5.386;2023-05-07T02:07:36;101466.38;;;20.02;53.17
61710;BME280;47633;51.494;5.386;2023-05-07T02:10:01;101463.72;;;20.02;53.41
61710;BME280;47633;51.494;5.386;2023-05-07T02:12:28;101467.25;;;20.03;53.33
61710;BME280;47633;51.494;5.386;2023-05-07T02:14:53;101459.78;;;19.97;53.39
61710;BME280;47633;51.494;5.386;2023-05-07T02:17:18;101476.00;;;20.03;53.68
61710;BME280;47633;51.494;5.386;2023-05-07T02:19:44;101473.38;;;20.03;53.49
61710;BME280;47633;51.494;5.386;2023-05-07T02:22:09;101471.78;;;20.01;53.11
61710;BME280;47633;51.494;5.386;2023-05-07T02:24:34;101474.44;;;20.01;53.48
61710;BME280;47633;51.494;5.386;2023-05-07T02:27:00;101478.91;;;20.00;53.37
61710;BME280;47633;51.494;5.386;2023-05-07T02:29:25;101478.06;;;20.00;53.32
61710;BME280;47633;51.494;5.386;2023-05-07T02:31:50;101475.53;;;19.98;53.21
61710;BME280;47633;51.494;5.386;2023-05-07T02:34:18;101484.31;;;19.99;53.28
61710;BME280;47633;51.494;5.386;2023-05-07T02:36:43;101484.31;;;19.99;53.52
61710;BME280;47633;51.494;5.386;2023-05-07T02:39:08;101480.72;;;20.00;53.31
61710;BME280;47633;51.494;5.386;2023-05-07T02:41:34;101475.53;;;19.98;53.42
61710;BME280;47633;51.494;5.386;2023-05-07T02:43:59;101475.53;;;19.98;53.43
61710;BME280;47633;51.494;5.386;2023-05-07T02:46:25;101470.38;;;19.97;53.50
61710;BME280;47633;51.494;5.386;2023-05-07T02:48:50;101477.31;;;19.98;53.52
61710;BME280;47633;51.494;5.386;2023-05-07T02:51:19;101487.91;;;19.98;53.44
61710;BME280;47633;51.494;5.386;2023-05-07T02:53:44;101488.88;;;19.97;53.35
61710;BME280;47633;51.494;5.386;2023-05-07T02:56:10;101492.38;;;19.97;53.33
61710;BME280;47633;51.494;5.386;2023-05-07T02:58:35;101485.38;;;19.96;53.61
61710;BME280;47633;51.494;5.386;2023-05-07T03:01:00;101483.72;;;19.95;53.47
61710;BME280;47633;51.494;5.386;2023-05-07T03:03:25;101471.44;;;19.94;53.47
61710;BME280;47633;51.494;5.386;2023-05-07T03:05:51;101471.44;;;19.94;53.38
61710;BME280;47633;51.494;5.386;2023-05-07T03:08:16;101472.16;;;19.96;53.35
61710;BME280;47633;51.494;5.386;2023-05-07T03:10:41;101464.22;;;19.96;53.42
61710;BME280;47633;51.494;5.386;2023-05-07T03:13:07;101470.63;;;19.93;53.45
61710;BME280;47633;51.494;5.386;2023-05-07T03:15:32;101480.09;;;19.96;53.40
61710;BME280;47633;51.494;5.386;2023-05-07T03:17:57;101472.16;;;19.96;53.42
61710;BME280;47633;51.494;5.386;2023-05-07T03:20:23;101470.63;;;19.93;53.36
61710;BME280;47633;51.494;5.386;2023-05-07T03:22:48;101469.63;;;19.94;53.21
61710;BME280;47633;51.494;5.386;2023-05-07T03:25:13;101464.34;;;19.94;53.33
61710;BME280;47633;51.494;5.386;2023-05-07T03:27:39;101460.03;;;19.93;53.45
61710;BME280;47633;51.494;5.386;2023-05-07T03:30:07;101466.16;;;19.94;53.36
61710;BME280;47633;51.494;5.386;2023-05-07T03:32:32;101462.69;;;19.93;53.38
61710;BME280;47633;51.494;5.386;2023-05-07T03:34:58;101455.69;;;19.92;53.46
61710;BME280;47633;51.494;5.386;2023-05-07T03:37:23;101459.28;;;19.91;53.45
61710;BME280;47633;51.494;5.386;2023-05-07T03:39:48;101457.38;;;19.93;53.46
61710;BME280;47633;51.494;5.386;2023-05-07T03:42:14;101455.81;;;19.91;53.23
61710;BME280;47633;51.494;5.386;2023-05-07T03:44:40;101457.38;;;19.93;53.20
61710;BME280;47633;51.494;5.386;2023-05-07T03:47:05;101463.50;;;19.94;53.46
61710;BME280;47633;51.494;5.386;2023-05-07T03:49:30;101460.88;;;19.94;53.48
61710;BME280;47633;51.494;5.386;2023-05-07T03:51:56;101458.34;;;19.92;53.51
61710;BME280;47633;51.494;5.386;2023-05-07T03:54:21;101461.94;;;19.91;53.51
61710;BME280;47633;51.494;5.386;2023-05-07T03:56:46;101464.59;;;19.91;53.41
61710;BME280;47633;51.494;5.386;2023-05-07T03:59:12;101463.63;;;19.92;53.37
61710;BME280;47633;51.494;5.386;2023-05-07T04:01:38;101475.03;;;19.93;53.51
61710;BME280;47633;51.494;5.386;2023-05-07T04:04:03;101475.16;;;19.91;53.61
61710;BME280;47633;51.494;5.386;2023-05-07T04:06:29;101472.75;;;19.88;53.26
61710;BME280;47633;51.494;5.386;2023-05-07T04:08:54;101484.09;;;19.90;53.59
61710;BME280;47633;51.494;5.386;2023-05-07T04:11:19;101483.22;;;19.90;53.76
61710;BME280;47633;51.494;5.386;2023-05-07T04:13:45;101489.25;;;19.92;53.56
61710;BME280;47633;51.494;5.386;2023-05-07T04:16:10;101490.09;;;19.92;53.63
61710;BME280;47633;51.494;5.386;2023-05-07T04:18:36;101496.31;;;19.91;53.56
61710;BME280;47633;51.494;5.386;2023-05-07T04:21:01;101485.97;;;19.88;53.66
61710;BME280;47633;51.494;5.386;2023-05-07T04:23:26;101488.50;;;19.90;53.45
61710;BME280;47633;51.494;5.386;2023-05-07T04:25:52;101490.31;;;19.89;53.58
61710;BME280;47633;51.494;5.386;2023-05-07T04:28:17;101492.97;;;19.89;53.46
61710;BME280;47633;51.494;5.386;2023-05-07T04:30:43;101496.31;;;19.91;53.65
61710;BME280;47633;51.494;5.386;2023-05-07T04:33:08;101494.66;;;19.90;53.69
61710;BME280;47633;51.494;5.386;2023-05-07T04:35:33;101483.34;;;19.88;53.60
61710;BME280;47633;51.494;5.386;2023-05-07T04:37:59;101485.03;;;19.89;53.57
61710;BME280;47633;51.494;5.386;2023-05-07T04:40:24;101482.50;;;19.88;53.68
61710;BME280;47633;51.494;5.386;2023-05-07T04:42:49;101485.03;;;19.89;53.42
61710;BME280;47633;51.494;5.386;2023-05-07T04:45:15;101491.16;;;19.90;53.66
61710;BME280;47633;51.494;5.386;2023-05-07T04:47:40;101485.16;;;19.88;53.56
61710;BME280;47633;51.494;5.386;2023-05-07T04:50:06;101492.25;;;19.87;53.54
61710;BME280;47633;51.494;5.386;2023-05-07T04:52:32;101491.28;;;19.88;53.63
61710;BME280;47633;51.494;5.386;2023-05-07T04:55:00;101494.78;;;19.89;53.43
61710;BME280;47633;51.494;5.386;2023-05-07T04:57:26;101502.00;;;19.87;53.63
61710;BME280;47633;51.494;5.386;2023-05-07T04:59:52;101504.66;;;19.87;53.55
61710;BME280;47633;51.494;5.386;2023-05-07T05:02:18;101508.13;;;19.87;53.69
61710;BME280;47633;51.494;5.386;2023-05-07T05:04:43;101505.59;;;19.86;53.72
61710;BME280;47633;51.494;5.386;2023-05-07T05:07:08;101504.66;;;19.87;53.66
61710;BME280;47633;51.494;5.386;2023-05-07T05:09:33;101512.59;;;19.87;53.71
61710;BME280;47633;51.494;5.386;2023-05-07T05:11:59;101508.13;;;19.87;53.64
61710;BME280;47633;51.494;5.386;2023-05-07T05:14:24;101498.50;;;19.86;53.69
61710;BME280;47633;51.494;5.386;2023-05-07T05:16:49;101508.25;;;19.86;53.55
61710;BME280;47633;51.494;5.386;2023-05-07T05:19:15;101504.78;;;19.85;53.70
61710;BME280;47633;51.494;5.386;2023-05-07T05:21:40;101503.78;;;19.86;53.58
61710;BME280;47633;51.494;5.386;2023-05-07T05:24:05;101506.31;;;19.88;53.73
61710;BME280;47633;51.494;5.386;2023-05-07T05:26:31;101511.59;;;19.88;53.81
61710;BME280;47633;51.494;5.386;2023-05-07T05:28:56;101514.47;;;19.85;53.60
61710;BME280;47633;51.494;5.386;2023-05-07T05:31:21;101514.47;;;19.85;53.56
61710;BME280;47633;51.494;5.386;2023-05-07T05:33:47;101517.88;;;19.87;53.92
61710;BME280;47633;51.494;5.386;2023-05-07T05:36:12;101519.66;;;19.86;53.57
61710;BME280;47633;51.494;5.386;2023-05-07T05:38:38;101518.13;;;19.84;53.55
61710;BME280;47633;51.494;5.386;2023-05-07T05:41:04;101523.41;;;19.84;53.68
61710;BME280;47633;51.494;5.386;2023-05-07T05:43:29;101518.94;;;19.84;53.47
61710;BME280;47633;51.494;5.386;2023-05-07T05:45:55;101525.81;;;19.87;53.21
61710;BME280;47633;51.494;5.386;2023-05-07T05:48:21;101535.53;;;19.86;53.35
61710;BME280;47633;51.494;5.386;2023-05-07T05:50:46;101530.25;;;19.86;53.34
61710;BME280;47633;51.494;5.386;2023-05-07T05:53:11;101535.53;;;19.86;53.18
61710;BME280;47633;51.494;5.386;2023-05-07T05:55:37;101527.47;;;19.88;53.05
61710;BME280;47633;51.494;5.386;2023-05-07T05:58:02;101524.00;;;19.87;53.44
61710;BME280;47633;51.494;5.386;2023-05-07T06:00:28;101524.94;;;19.86;53.58
61710;BME280;47633;51.494;5.386;2023-05-07T06:02:54;101527.22;;;19.91;53.59
61710;BME280;47633;51.494;5.386;2023-05-07T06:05:19;101529.88;;;19.91;53.44
61710;BME280;47633;51.494;5.386;2023-05-07T06:07:44;101528.19;;;19.90;53.87
61710;BME280;47633;51.494;5.386;2023-05-07T06:10:10;101534.94;;;19.94;53.84
61710;BME280;47633;51.494;5.386;2023-05-07T06:12:35;101530.72;;;19.91;53.98
61710;BME280;47633;51.494;5.386;2023-05-07T06:15:00;101526.41;;;19.90;54.08
61710;BME280;47633;51.494;5.386;2023-05-07T06:17:26;101523.63;;;19.92;54.37
61710;BME280;47633;51.494;5.386;2023-05-07T06:19:52;101528.94;;;19.92;54.45
61710;BME280;47633;51.494;5.386;2023-05-07T06:22:17;101532.28;;;19.94;54.53
61710;BME280;47633;51.494;5.386;2023-05-07T06:24:42;101533.97;;;19.95;54.57
61710;BME280;47633;51.494;5.386;2023-05-07T06:27:08;101521.81;;;19.92;54.72
61710;BME280;47633;51.494;5.386;2023-05-07T06:29:33;101527.00;;;19.94;54.93
61710;BME280;47633;51.494;5.386;2023-05-07T06:32:12;101530.72;;;19.91;54.81
61710;BME280;47633;51.494;5.386;2023-05-07T06:34:38;101529.88;;;20.02;55.04
61710;BME280;47633;51.494;5.386;2023-05-07T06:37:04;101530.97;;;20.00;55.28
61710;BME280;47633;51.494;5.386;2023-05-07T06:39:30;101533.00;;;19.96;55.53
61710;BME280;47633;51.494;5.386;2023-05-07T06:41:55;101530.59;;;19.93;55.57
61710;BME280;47633;51.494;5.386;2023-05-07T06:44:20;101535.75;;;19.94;55.71
61710;BME280;47633;51.494;5.386;2023-05-07T06:46:46;101537.00;;;19.90;55.94
61710;BME280;47633;51.494;5.386;2023-05-07T06:49:14;101552.84;;;19.90;56.15
61710;BME280;47633;51.494;5.386;2023-05-07T06:51:39;101548.41;;;19.91;56.21
61710;BME280;47633;51.494;5.386;2023-05-07T06:54:05;101546.69;;;19.90;56.20
61710;BME280;47633;51.494;5.386;2023-05-07T06:56:31;101552.00;;;19.90;56.21
61710;BME280;47633;51.494;5.386;2023-05-07T06:58:56;101555.38;;;19.92;56.25
61710;BME280;47633;51.494;5.386;2023-05-07T07:01:21;101554.41;;;19.93;56.25
61710;BME280;47633;51.494;5.386;2023-05-07T07:03:47;101561.38;;;19.94;56.32
61710;BME280;47633;51.494;5.386;2023-05-07T07:06:12;101550.94;;;19.92;56.54
61710;BME280;47633;51.494;5.386;2023-05-07T07:08:37;101556.09;;;19.94;56.36
61710;BME280;47633;51.494;5.386;2023-05-07T07:11:04;101551.88;;;19.91;56.34
61710;BME280;47633;51.494;5.386;2023-05-07T07:13:29;101559.56;;;20.06;56.06
61710;BME280;47633;51.494;5.386;2023-05-07T07:15:55;101555.72;;;20.21;55.54
61710;BME280;47633;51.494;5.386;2023-05-07T07:18:20;101564.88;;;20.28;55.09
61710;BME280;47633;51.494;5.386;2023-05-07T07:20:45;101558.25;;;20.34;55.13
61710;BME280;47633;51.494;5.386;2023-05-07T07:23:11;101559.00;;;20.36;54.70
61710;BME280;47633;51.494;5.386;2023-05-07T07:25:36;101563.53;;;20.34;54.71
61710;BME280;47633;51.494;5.386;2023-05-07T07:28:01;101562.47;;;20.37;54.50
61710;BME280;47633;51.494;5.386;2023-05-07T07:30:27;101570.41;;;20.37;54.47
61710;BME280;47633;51.494;5.386;2023-05-07T07:32:52;101563.53;;;20.34;54.69
61710;BME280;47633;51.494;5.386;2023-05-07T07:35:18;101563.41;;;20.36;54.68
61710;BME280;47633;51.494;5.386;2023-05-07T07:37:43;101571.25;;;20.37;54.55
61710;BME280;47633;51.494;5.386;2023-05-07T07:40:09;101568.72;;;20.36;54.48
61710;BME280;47633;51.494;5.386;2023-05-07T07:42:34;101578.34;;;20.37;54.30
61710;BME280;47633;51.494;5.386;2023-05-07T07:45:00;101572.34;;;20.35;54.55
61710;BME280;47633;51.494;5.386;2023-05-07T07:47:25;101569.81;;;20.33;54.73
61710;BME280;47633;51.494;5.386;2023-05-07T07:49:50;101573.41;;;20.32;54.66
61710;BME280;47633;51.494;5.386;2023-05-07T07:52:15;101572.44;;;20.22;54.61
61710;BME280;47633;51.494;5.386;2023-05-07T07:54:41;101568.13;;;20.09;55.36
61710;BME280;47633;51.494;5.386;2023-05-07T07:57:06;101571.97;;;20.05;55.65
61710;BME280;47633;51.494;5.386;2023-05-07T07:59:31;101568.72;;;20.02;56.03
61710;BME280;47633;51.494;5.386;2023-05-07T08:01:56;101565.59;;;19.97;55.86
61710;BME280;47633;51.494;5.386;2023-05-07T08:04:22;101574.84;;;20.02;56.39
61710;BME280;47633;51.494;5.386;2023-05-07T08:06:48;101570.66;;;20.00;56.62
61710;BME280;47633;51.494;5.386;2023-05-07T08:09:13;101567.03;;;20.01;57.39
61710;BME280;47633;51.494;5.386;2023-05-07T08:11:39;101567.63;;;20.04;57.56
61710;BME280;47633;51.494;5.386;2023-05-07T08:14:05;101577.03;;;20.08;57.08
61710;BME280;47633;51.494;5.386;2023-05-07T08:16:30;101574.25;;;20.10;57.08
61710;BME280;47633;51.494;5.386;2023-05-07T08:18:55;101572.09;;;20.15;56.95
61710;BME280;47633;51.494;5.386;2023-05-07T08:21:22;101580.16;;;20.14;57.01
61710;BME280;47633;51.494;5.386;2023-05-07T08:23:48;101582.69;;;20.15;57.03
61710;BME280;47633;51.494;5.386;2023-05-07T08:26:13;101577.63;;;20.12;57.19
61710;BME280;47633;51.494;5.386;2023-05-07T08:28:38;101570.06;;;20.19;57.04
61710;BME280;47633;51.494;5.386;2023-05-07T08:31:05;101579.31;;;20.36;56.39
61710;BME280;47633;51.494;5.386;2023-05-07T08:33:30;101577.88;;;20.43;56.20
61710;BME280;47633;51.494;5.386;2023-05-07T08:35:56;101583.75;;;20.46;56.29
61710;BME280;47633;51.494;5.386;2023-05-07T08:38:21;101587.09;;;20.48;55.82
61710;BME280;47633;51.494;5.386;2023-05-07T08:40:47;101591.34;;;20.40;55.91
61710;BME280;47633;51.494;5.386;2023-05-07T08:43:13;101586.19;;;20.27;55.88
61710;BME280;47633;51.494;5.386;2023-05-07T08:45:39;101588.31;;;20.22;55.82
61710;BME280;47633;51.494;5.386;2023-05-07T08:48:09;101581.13;;;20.13;56.04
61710;BME280;47633;51.494;5.386;2023-05-07T08:50:36;101588.09;;;20.14;55.88
61710;BME280;47633;51.494;5.386;2023-05-07T08:53:03;101584.72;;;20.11;55.80
61710;BME280;47633;51.494;5.386;2023-05-07T08:55:29;101587.38;;;20.11;56.05
61710;BME280;47633;51.494;5.386;2023-05-07T08:57:55;101586.66;;;20.09;56.46
61710;BME280;47633;51.494;5.386;2023-05-07T09:00:20;101586.66;;;20.09;56.04
61710;BME280;47633;51.494;5.386;2023-05-07T09:02:45;101590.97;;;20.10;55.84
61710;BME280;47633;51.494;5.386;2023-05-07T09:05:11;101594.38;;;20.13;56.04
61710;BME280;47633;51.494;5.386;2023-05-07T09:07:36;101594.13;;;20.16;55.71
61710;BME280;47633;51.494;5.386;2023-05-07T09:10:05;101598.19;;;20.31;55.57
61710;BME280;47633;51.494;5.386;2023-05-07T09:12:30;101598.06;;;20.44;55.13
61710;BME280;47633;51.494;5.386;2023-05-07T09:14:56;101604.44;;;20.53;54.93
61710;BME280;47633;51.494;5.386;2023-05-07T09:17:21;101598.19;;;20.54;54.96
61710;BME280;47633;51.494;5.386;2023-05-07T09:19:46;101596.25;;;20.56;54.95
61710;BME280;47633;51.494;5.386;2023-05-07T09:22:12;101598.03;;;20.55;54.94
61710;BME280;47633;51.494;5.386;2023-05-07T09:24:38;101599.88;;;20.55;55.05
61710;BME280;47633;51.494;5.386;2023-05-07T09:27:07;101606.25;;;20.52;55.14
61710;BME280;47633;51.494;5.386;2023-05-07T09:29:33;101606.00;;;20.55;55.60
61710;BME280;47633;51.494;5.386;2023-05-07T09:32:03;101601.09;;;20.51;55.94
61710;BME280;47633;51.494;5.386;2023-05-07T09:34:29;101597.00;;;20.46;56.40
61710;BME280;47633;51.494;5.386;2023-05-07T09:36:55;101602.88;;;20.50;56.28
61710;BME280;47633;51.494;5.386;2023-05-07T09:39:22;101599.16;;;20.53;56.36
61710;BME280;47633;51.494;5.386;2023-05-07T09:41:48;101604.44;;;20.53;56.61
61710;BME280;47633;51.494;5.386;2023-05-07T09:44:15;101604.44;;;20.53;56.62
61710;BME280;47633;51.494;5.386;2023-05-07T09:46:42;101603.75;;;20.51;57.21
61710;BME280;47633;51.494;5.386;2023-05-07T09:49:12;101597.34;;;20.53;57.44
61710;BME280;47633;51.494;5.386;2023-05-07T09:51:50;101603.34;;;20.55;57.93
61710;BME280;47633;51.494;5.386;2023-05-07T09:54:17;101605.88;;;20.57;58.01
61710;BME280;47633;51.494;5.386;2023-05-07T09:56:44;101604.22;;;20.56;58.13
61710;BME280;47633;51.494;5.386;2023-05-07T09:59:12;101602.38;;;20.56;57.93
61710;BME280;47633;51.494;5.386;2023-05-07T10:01:40;101606.00;;;20.55;58.56
61710;BME280;47633;51.494;5.386;2023-05-07T10:04:07;101605.16;;;20.55;58.58
61710;BME280;47633;51.494;5.386;2023-05-07T10:06:35;101607.81;;;20.55;58.59
61710;BME280;47633;51.494;5.386;2023-05-07T10:09:02;101607.81;;;20.55;58.96
61710;BME280;47633;51.494;5.386;2023-05-07T10:11:28;101604.22;;;20.56;58.97
61710;BME280;47633;51.494;5.386;2023-05-07T10:13:53;101598.91;;;20.56;59.34
61710;BME280;47633;51.494;5.386;2023-05-07T10:16:19;101604.91;;;20.58;59.42
61710;BME280;47633;51.494;5.386;2023-05-07T10:18:45;101607.44;;;20.59;59.24
61710;BME280;47633;51.494;5.386;2023-05-07T10:21:20;101608.28;;;20.60;59.50
61710;BME280;47633;51.494;5.386;2023-05-07T10:23:49;101607.31;;;20.61;59.38
61710;BME280;47633;51.494;5.386;2023-05-07T10:26:15;101601.31;;;20.59;59.38
61710;BME280;47633;51.494;5.386;2023-05-07T10:28:46;101606.50;;;20.60;59.65
61710;BME280;47633;51.494;5.386;2023-05-07T10:33:56;101600.22;;;20.61;59.68
61710;BME280;47633;51.494;5.386;2023-05-07T10:36:23;101605.38;;;20.63;59.94
61710;BME280;47633;51.494;5.386;2023-05-07T10:38:49;101599.25;;;20.62;59.84
61710;BME280;47633;51.494;5.386;2023-05-07T10:41:15;101600.94;;;20.63;59.90
61710;BME280;47633;51.494;5.386;2023-05-07T10:43:44;101601.69;;;20.65;59.94
61710;BME280;47633;51.494;5.386;2023-05-07T10:51:30;101605.91;;;20.68;60.08
61710;BME280;47633;51.494;5.386;2023-05-07T10:56:37;101595.66;;;20.63;60.62
61710;BME280;47633;51.494;5.386;2023-05-07T11:01:57;101611.56;;;20.75;61.09
61710;BME280;47633;51.494;5.386;2023-05-07T11:04:23;101613.22;;;20.76;60.86
61710;BME280;47633;51.494;5.386;2023-05-07T11:17:34;101616.72;;;20.76;61.10
61710;BME280;47633;51.494;5.386;2023-05-07T11:20:01;101609.50;;;20.78;61.24
61710;BME280;47633;51.494;5.386;2023-05-07T11:25:01;101608.03;;;20.74;61.28
61710;BME280;47633;51.494;5.386;2023-05-07T11:27:27;101615.88;;;20.76;61.24
61710;BME280;47633;51.494;5.386;2023-05-07T11:29:52;101614.91;;;20.77;61.44
61710;BME280;47633;51.494;5.386;2023-05-07T11:32:29;101609.84;;;20.74;61.17
61710;BME280;47633;51.494;5.386;2023-05-07T11:34:57;101612.84;;;20.80;60.34
61710;BME280;47633;51.494;5.386;2023-05-07T11:37:24;101615.63;;;20.79;59.72
61710;BME280;47633;51.494;5.386;2023-05-07T11:39:50;101602.13;;;20.82;58.28
61710;BME280;47633;51.494;5.386;2023-05-07T11:42:33;101607.66;;;20.79;58.22
61710;BME280;47633;51.494;5.386;2023-05-07T11:44:59;101602.63;;;20.76;58.53
61710;BME280;47633;51.494;5.386;2023-05-07T11:47:24;101604.56;;;20.74;58.20
61710;BME280;47633;51.494;5.386;2023-05-07T11:49:53;101600.50;;;20.70;58.33
61710;BME280;47633;51.494;5.386;2023-05-07T11:52:20;101604.81;;;20.71;58.01
61710;BME280;47633;51.494;5.386;2023-05-07T11:54:54;101605.06;;;20.68;57.49
61710;BME280;47633;51.494;5.386;2023-05-07T11:57:20;101606.03;;;20.67;57.63
61710;BME280;47633;51.494;5.386;2023-05-07T11:59:46;101606.75;;;20.69;57.49
61710;BME280;47633;51.494;5.386;2023-05-07T12:02:14;101612.03;;;20.69;57.66
61710;BME280;47633;51.494;5.386;2023-05-07T12:04:40;101606.03;;;20.67;57.71
61710;BME280;47633;51.494;5.386;2023-05-07T12:07:05;101602.41;;;20.68;57.68
61710;BME280;47633;51.494;5.386;2023-05-07T12:09:32;101605.06;;;20.68;57.86
61710;BME280;47633;51.494;5.386;2023-05-07T12:12:03;101600.94;;;20.63;57.39
61710;BME280;47633;51.494;5.386;2023-05-07T12:14:29;101597.22;;;20.66;56.75
61710;BME280;47633;51.494;5.386;2023-05-07T12:16:54;101603.38;;;20.67;56.26
61710;BME280;47633;51.494;5.386;2023-05-07T12:19:20;101602.66;;;20.64;56.59
61710;BME280;47633;51.494;5.386;2023-05-07T12:21:45;101614.81;;;20.67;57.01
61710;BME280;47633;51.494;5.386;2023-05-07T12:24:11;101627.22;;;20.67;56.92
61710;BME280;47633;51.494;5.386;2023-05-07T12:26:39;101633.69;;;20.62;57.68
61710;BME280;47633;51.494;5.386;2023-05-07T12:29:05;101632.84;;;20.62;58.17
61710;BME280;47633;51.494;5.386;2023-05-07T12:31:31;101641.03;;;20.59;58.25
61710;BME280;47633;51.494;5.386;2023-05-07T12:33:56;101640.91;;;20.60;58.88
61710;BME280;47633;51.494;5.386;2023-05-07T12:36:21;101644.63;;;20.58;59.04
61710;BME280;47633;51.494;5.386;2023-05-07T12:38:49;101649.81;;;20.59;59.49
61710;BME280;47633;51.494;5.386;2023-05-07T12:41:15;101661.97;;;20.62;59.40
61710;BME280;47633;51.494;5.386;2023-05-07T12:43:43;101668.13;;;20.62;59.67
61710;BME280;47633;51.494;5.386;2023-05-07T12:46:09;101670.56;;;20.65;59.64
61710;BME280;47633;51.494;5.386;2023-05-07T12:48:38;101666.41;;;20.61;60.07
61710;BME280;47633;51.494;5.386;2023-05-07T12:51:05;101670.56;;;20.65;60.02
61710;BME280;47633;51.494;5.386;2023-05-07T12:53:31;101690.66;;;20.68;60.08
61710;BME280;47633;51.494;5.386;2023-05-07T12:55:58;101694.50;;;20.64;60.08
61710;BME280;47633;51.494;5.386;2023-05-07T12:58:29;101702.22;;;20.67;60.21
61710;BME280;47633;51.494;5.386;2023-05-07T13:00:55;101705.69;;;20.68;60.22
61710;BME280;47633;51.494;5.386;2023-05-07T13:05:49;101710.03;;;20.69;60.08
61710;BME280;47633;51.494;5.386;2023-05-07T13:08:24;101717.28;;;20.67;59.99
61710;BME280;47633;51.494;5.386;2023-05-07T13:10:49;101710.28;;;20.65;59.66
61710;BME280;47633;51.494;5.386;2023-05-07T13:13:15;101717.75;;;20.72;59.12